Hauptseite
METAR-TAF:

METAR-TAF

Flughäfen :

Flughafen Groningen

Groningen, Niederlande

Breite: 53-08N, Länge: 006-35E, Höhe: 4 m

Beobachtung

Neuester Wetterbericht von vor 32 Minuten, um 20:55 UTC
Wind 4 kt aus Südwest
Temperatur 0°C
Luftfeuchtigkeit 86%
Luftdruck 1019 hPa
Sichtweite 10 km oder mehr

METAR: EHGG 032055Z AUTO 22004KT 9999 NCD 00/M02 Q1019 NOSIG

Zeit: 23:27 (21:27 UTC)

Prognose

Neuester Wetterbericht von vor 4 Stunden und 33 Minuten, um 16:54 UTC
Gültige Prognose vom 03 um 18 UTC bis 04 um 24 UTC
Wind 6 kt aus West/Südwest
Sichtweite 10 km oder mehr
keine Wolken unter 1500 m und keine Kumulonimbus oder Gewitterwolken
Übergehend zu
vom 04 um 07 UTC bis 04 um 10 UTC
Wind 10 kt aus Süd/Südwest
Übergehend zu
vom 04 um 15 UTC bis 04 um 18 UTC
Wind 5 kt aus Südost

TAF: EHGG 031654Z 0318/0424 24006KT CAVOK BECMG 0407/0410 20010KT BECMG 0415/0418 14005KT

Wetterbeobachtungen und Prognosen von mehr als 4000 Flughäfen (METAR und TAF Bericht).

Die verfügbaren Stationen werden durch gelbe und rote Markierungen auf der Karte dargestellt.

Führen Sie die Maus auf sie, um den Namen der Station zu sehen.

Darauf klicken, um die Beobachtung von Wetterbeobachtungen und Prognosen zu sehen.

Um die Karte zu ändern : klicken Sie auf den grünen Tasten mit einem schwarzen Kreuz Zum Vergrößern, auf den grünen Button mit einem Gedankenstrich zu verkleinern, oder auf die grünen Pfeile für benachbarte Karten.


METAR-TAF: